Time;durP1;ratioP1;P1;durP2;ratioP2;P2;SDS_P1;SDS_P2;PMS_P1;PMS_P2;Temp;Humidity;BMP_temperature;BMP_pressure;BME280_temperature;BME280_humidity;BME280_pressure;Samples;Min_cycle;Max_cycle;Signal;HPM_P1;HPM_P2
2023/06/21 00:01:03;;;;;;;43.03;8.83;;;29.40;55.20;;;;;;5042848;28;20295;-62
2023/06/21 00:03:30;;;;;;;38.47;8.73;;;29.40;55.30;;;;;;5048346;28;20211;-62
2023/06/21 00:05:57;;;;;;;41.70;8.53;;;29.40;55.30;;;;;;5039655;28;20201;-65
2023/06/21 00:08:25;;;;;;;28.27;7.87;;;29.30;55.20;;;;;;5031670;28;20212;-62
2023/06/21 00:10:52;;;;;;;35.70;8.73;;;29.30;55.20;;;;;;5036028;28;20215;-63
2023/06/21 00:13:19;;;;;;;45.17;8.90;;;29.30;55.20;;;;;;5041979;28;20254;-62
2023/06/21 00:15:46;;;;;;;29.37;7.83;;;29.30;55.20;;;;;;5035183;28;20204;-61
2023/06/21 00:18:13;;;;;;;44.53;9.27;;;29.30;55.20;;;;;;5032322;28;20215;-62
2023/06/21 00:20:40;;;;;;;29.37;7.67;;;29.30;55.20;;;;;;5020048;28;20723;-62
2023/06/21 00:23:08;;;;;;;26.77;7.60;;;29.30;55.20;;;;;;5030481;28;20212;-65
2023/06/21 00:25:36;;;;;;;32.23;7.63;;;29.30;55.20;;;;;;5012516;28;20256;-62
2023/06/21 00:28:03;;;;;;;31.17;7.23;;;29.30;55.20;;;;;;5015163;28;20201;-63
2023/06/21 00:30:30;;;;;;;24.47;6.77;;;29.30;55.20;;;;;;5025836;28;20683;-65
2023/06/21 00:32:57;;;;;;;26.57;6.87;;;29.30;55.20;;;;;;5025739;28;20212;-66
2023/06/21 00:35:24;;;;;;;40.13;7.97;;;29.30;55.20;;;;;;5020563;28;20209;-68
2023/06/21 00:37:50;;;;;;;38.33;7.90;;;29.30;55.20;;;;;;5026801;28;20216;-63
2023/06/21 00:40:21;;;;;;;24.40;7.50;;;29.20;55.10;;;;;;5023631;28;20212;-62
2023/06/21 00:42:50;;;;;;;34.80;7.50;;;29.20;55.20;;;;;;5029214;28;20214;-62
2023/06/21 00:45:17;;;;;;;22.13;6.57;;;29.20;55.20;;;;;;5035647;28;20208;-68
2023/06/21 00:47:45;;;;;;;32.07;6.93;;;29.20;55.10;;;;;;5046848;28;20200;-66
2023/06/21 00:50:13;;;;;;;29.27;6.57;;;29.20;55.10;;;;;;5034796;28;20676;-63
2023/06/21 00:52:42;;;;;;;32.13;7.27;;;29.20;55.20;;;;;;5027916;28;20318;-63
2023/06/21 00:55:12;;;;;;;24.73;6.67;;;29.10;55.10;;;;;;5013466;28;20636;-62
2023/06/21 00:57:39;;;;;;;35.03;7.27;;;29.10;55.20;;;;;;5026832;28;20201;-67
2023/06/21 01:00:16;;;;;;;39.73;8.07;;;29.10;55.10;;;;;;5018541;28;20693;-65
2023/06/21 01:02:43;;;;;;;38.17;7.83;;;29.10;55.10;;;;;;5019883;28;20568;-66
2023/06/21 01:05:10;;;;;;;35.33;7.57;;;29.10;55.10;;;;;;5033642;28;20678;-65
2023/06/21 01:07:46;;;;;;;26.67;7.07;;;29.10;55.10;;;;;;5042268;28;20200;-71
2023/06/21 01:10:24;;;;;;;27.80;6.90;;;29.10;55.20;;;;;;5027034;28;20216;-68
2023/06/21 01:13:04;;;;;;;34.53;7.50;;;29.10;55.20;;;;;;5028060;28;20204;-69
2023/06/21 01:15:40;;;;;;;28.40;6.53;;;29.00;55.20;;;;;;5027442;28;20201;-66
2023/06/21 01:18:09;;;;;;;38.30;7.63;;;29.00;55.10;;;;;;5028161;28;20208;-64
2023/06/21 01:20:37;;;;;;;38.17;7.73;;;29.00;55.10;;;;;;5026599;28;20220;-63
2023/06/21 01:23:40;;;;;;;24.80;6.53;;;29.00;55.10;;;;;;5038021;28;20208;-62
2023/06/21 01:26:13;;;;;;;25.03;6.60;;;29.00;55.20;;;;;;4998561;28;20699;-65
2023/06/21 01:28:50;;;;;;;29.23;6.83;;;29.00;55.10;;;;;;5027719;28;20208;-63
2023/06/21 01:31:18;;;;;;;22.67;5.83;;;29.00;55.20;;;;;;5034212;28;20243;-63
2023/06/21 01:33:47;;;;;;;28.43;6.73;;;29.00;55.20;;;;;;5029978;28;20212;-63
2023/06/21 01:36:14;;;;;;;26.17;6.20;;;28.90;55.10;;;;;;5017655;28;20209;-62
2023/06/21 01:38:41;;;;;;;30.43;6.90;;;28.90;55.10;;;;;;5028236;28;20679;-62
2023/06/21 01:41:10;;;;;;;28.03;6.50;;;28.90;55.10;;;;;;5016976;28;20217;-62
2023/06/21 01:43:38;;;;;;;30.03;7.03;;;28.90;55.10;;;;;;5008262;28;20202;-62
2023/06/21 01:46:06;;;;;;;29.23;6.40;;;28.90;55.20;;;;;;5014916;28;20204;-62
2023/06/21 01:48:35;;;;;;;26.77;6.17;;;28.80;55.10;;;;;;5035644;28;20223;-62
2023/06/21 01:51:04;;;;;;;39.30;7.40;;;28.80;55.20;;;;;;5028065;28;20197;-62
2023/06/21 01:53:33;;;;;;;31.87;6.93;;;28.80;55.10;;;;;;5015857;28;20224;-66
2023/06/21 01:56:02;;;;;;;32.70;6.93;;;28.80;55.10;;;;;;5017759;28;20215;-62
2023/06/21 01:58:31;;;;;;;76.73;10.53;;;28.80;55.20;;;;;;5032119;28;20261;-66
2023/06/21 02:01:00;;;;;;;56.77;9.53;;;28.80;55.20;;;;;;5014658;28;20312;-63
2023/06/21 02:03:28;;;;;;;26.03;6.30;;;28.80;55.20;;;;;;5032811;28;20200;-62
2023/06/21 02:05:58;;;;;;;47.67;8.27;;;28.80;55.20;;;;;;5017262;28;20209;-62
2023/06/21 02:08:26;;;;;;;33.83;7.00;;;28.70;55.10;;;;;;5020523;28;20191;-62
2023/06/21 02:10:54;;;;;;;25.40;7.17;;;28.70;55.80;;;;;;5031308;28;20292;-64
2023/06/21 02:13:21;;;;;;;18.07;5.77;;;28.70;55.20;;;;;;5013898;28;20205;-62
2023/06/21 02:15:48;;;;;;;40.03;7.70;;;28.70;55.20;;;;;;5028220;28;20204;-62
2023/06/21 02:18:16;;;;;;;28.73;6.70;;;28.70;55.30;;;;;;5040026;28;20202;-66
2023/06/21 02:20:43;;;;;;;31.43;6.77;;;28.70;55.80;;;;;;5023507;28;20229;-62
2023/06/21 02:23:11;;;;;;;31.67;6.97;;;28.60;55.20;;;;;;5019987;28;20205;-63
2023/06/21 02:25:38;;;;;;;28.83;6.67;;;28.70;55.30;;;;;;5021474;28;20216;-64
2023/06/21 02:28:05;;;;;;;25.80;6.43;;;28.70;55.30;;;;;;5031754;28;20205;-65
2023/06/21 02:30:33;;;;;;;28.17;7.00;;;28.70;55.20;;;;;;5029839;28;20282;-66
2023/06/21 02:33:00;;;;;;;33.40;7.17;;;28.60;55.20;;;;;;5027656;28;20200;-66
2023/06/21 02:35:27;;;;;;;24.43;6.23;;;28.60;55.20;;;;;;5016003;28;20212;-68
2023/06/21 02:37:55;;;;;;;29.30;6.90;;;28.60;55.20;;;;;;5034058;28;20196;-68
2023/06/21 02:40:23;;;;;;;53.03;8.93;;;28.60;55.20;;;;;;5051038;28;20228;-63
2023/06/21 02:42:50;;;;;;;33.93;6.90;;;28.60;55.20;;;;;;5035348;28;20654;-67
2023/06/21 02:45:17;;;;;;;30.07;6.77;;;28.60;55.20;;;;;;5020627;28;20205;-67
2023/06/21 02:47:44;;;;;;;30.13;6.43;;;28.50;55.70;;;;;;5030080;28;20215;-67
2023/06/21 02:50:11;;;;;;;33.70;7.43;;;28.50;55.10;;;;;;5017660;28;20212;-66
2023/06/21 02:52:38;;;;;;;27.13;6.23;;;28.50;55.10;;;;;;5027107;28;20223;-70
2023/06/21 02:55:07;;;;;;;25.13;5.80;;;28.50;55.10;;;;;;5029291;28;20552;-71
2023/06/21 02:57:35;;;;;;;38.10;7.23;;;28.50;55.10;;;;;;5029871;28;20196;-72
2023/06/21 03:00:19;;;;;;;67.67;9.40;;;28.50;55.10;;;;;;5027071;28;20225;-73
2023/06/21 03:02:46;;;;;;;55.13;8.43;;;28.50;55.20;;;;;;5024203;28;20626;-69
2023/06/21 03:05:13;;;;;;;23.40;6.40;;;28.50;55.10;;;;;;5036121;28;20249;-67
2023/06/21 03:07:43;;;;;;;25.03;6.23;;;28.50;55.10;;;;;;5036829;28;20208;-66
2023/06/21 03:10:12;;;;;;;26.93;6.20;;;28.50;55.10;;;;;;5017353;28;20209;-65
2023/06/21 03:12:41;;;;;;;33.00;7.10;;;28.50;55.10;;;;;;5029389;28;20192;-66
2023/06/21 03:15:10;;;;;;;29.00;6.10;;;28.40;55.00;;;;;;5030078;28;20224;-66
2023/06/21 03:17:37;;;;;;;28.63;6.87;;;28.40;55.00;;;;;;5029468;28;20204;-70
2023/06/21 03:20:08;;;;;;;42.43;7.73;;;28.40;55.10;;;;;;5027035;28;20740;-70
2023/06/21 03:22:35;;;;;;;37.07;6.97;;;28.40;55.10;;;;;;5038964;28;20255;-65
2023/06/21 03:25:02;;;;;;;27.60;6.00;;;28.40;55.10;;;;;;5037900;28;20784;-62
2023/06/21 03:27:29;;;;;;;34.90;7.00;;;28.40;55.10;;;;;;5029163;28;20207;-65
2023/06/21 03:29:57;;;;;;;40.67;7.23;;;28.40;55.10;;;;;;5022274;28;20296;-63
2023/06/21 03:32:24;;;;;;;33.73;6.50;;;28.30;55.00;;;;;;5029463;28;20208;-77
2023/06/21 03:34:51;;;;;;;30.93;6.40;;;28.30;55.00;;;;;;5019148;28;20196;-75
2023/06/21 03:37:18;;;;;;;31.27;6.60;;;28.40;55.10;;;;;;5037676;28;20200;-63
2023/06/21 03:39:44;;;;;;;28.80;6.03;;;28.30;55.00;;;;;;5026505;28;20250;-62
2023/06/21 03:42:11;;;;;;;27.10;6.07;;;28.30;55.00;;;;;;5027611;28;20273;-62
2023/06/21 03:44:38;;;;;;;36.37;6.77;;;28.30;55.00;;;;;;5034029;28;20566;-63
2023/06/21 03:47:07;;;;;;;25.40;5.87;;;28.30;55.00;;;;;;5029458;28;20664;-77
2023/06/21 03:49:34;;;;;;;32.77;6.60;;;28.30;55.00;;;;;;5029415;28;20221;-65
2023/06/21 03:52:01;;;;;;;28.07;6.03;;;28.20;55.00;;;;;;5022292;28;20213;-62
2023/06/21 03:54:28;;;;;;;40.50;6.87;;;28.20;54.90;;;;;;5010332;28;20205;-70
2023/06/21 03:56:54;;;;;;;30.57;6.20;;;28.20;55.50;;;;;;5027657;28;20661;-69
2023/06/21 03:59:21;;;;;;;40.90;7.23;;;28.20;54.90;;;;;;5028978;28;20211;-69
2023/06/21 04:01:48;;;;;;;26.60;5.83;;;28.20;54.90;;;;;;5031061;28;20272;-67
2023/06/21 04:04:18;;;;;;;30.37;6.53;;;28.20;54.90;;;;;;5028965;28;20208;-78
2023/06/21 04:06:45;;;;;;;43.30;7.53;;;28.10;54.80;;;;;;5026847;28;20208;-77
2023/06/21 04:09:15;;;;;;;25.50;5.83;;;28.10;54.90;;;;;;5028863;28;20205;-77
2023/06/21 04:11:42;;;;;;;42.23;7.57;;;28.10;54.90;;;;;;5032187;28;20201;-65
2023/06/21 04:14:10;;;;;;;27.73;5.97;;;28.10;54.90;;;;;;5027743;28;20669;-62
2023/06/21 04:16:37;;;;;;;37.97;7.37;;;28.10;54.90;;;;;;5024679;28;20259;-65
2023/06/21 04:19:03;;;;;;;28.27;5.77;;;28.10;54.90;;;;;;5012252;28;20206;-62
2023/06/21 04:21:32;;;;;;;29.30;6.40;;;28.10;55.00;;;;;;5022014;28;20228;-65
2023/06/21 04:23:58;;;;;;;48.63;8.17;;;28.10;54.90;;;;;;5026299;28;20551;-65
2023/06/21 04:26:28;;;;;;;25.47;6.20;;;28.10;54.90;;;;;;5016118;28;20193;-73
2023/06/21 04:28:55;;;;;;;41.07;7.47;;;28.10;55.00;;;;;;5024141;28;20200;-77
2023/06/21 04:31:22;;;;;;;35.60;7.27;;;28.10;55.00;;;;;;5029089;28;20303;-72
2023/06/21 04:33:51;;;;;;;38.57;7.00;;;28.00;54.90;;;;;;5027300;28;20213;-76
2023/06/21 04:36:18;;;;;;;46.30;8.03;;;28.00;55.00;;;;;;5020052;28;20212;-68
2023/06/21 04:38:48;;;;;;;37.00;7.00;;;28.00;54.90;;;;;;5022516;28;20219;-75
2023/06/21 04:41:15;;;;;;;28.67;6.27;;;28.00;54.90;;;;;;5017349;28;20217;-62
2023/06/21 04:43:42;;;;;;;42.03;7.27;;;28.00;54.90;;;;;;5021526;28;20674;-68
2023/06/21 04:46:10;;;;;;;32.35;7.00;;;28.00;54.90;;;;;;5038778;28;20498;-70
2023/06/21 04:48:37;;;;;;;27.13;6.47;;;28.00;55.10;;;;;;5021367;28;20201;-60
2023/06/21 04:51:04;;;;;;;36.13;6.93;;;27.90;55.10;;;;;;5024887;28;20684;-61
2023/06/21 04:53:32;;;;;;;20.47;5.47;;;27.90;55.10;;;;;;5028254;28;20204;-62
2023/06/21 04:56:00;;;;;;;40.83;7.80;;;28.00;55.00;;;;;;5025943;28;20204;-61
2023/06/21 04:58:27;;;;;;;79.60;10.57;;;28.00;55.10;;;;;;5015166;28;20211;-61
2023/06/21 05:00:54;;;;;;;35.87;7.17;;;28.00;55.00;;;;;;5016864;28;20221;-70
2023/06/21 05:03:21;;;;;;;41.40;7.60;;;27.90;54.90;;;;;;5017220;28;20204;-66
2023/06/21 05:05:48;;;;;;;30.70;6.27;;;28.00;54.90;;;;;;5018107;28;20584;-66
2023/06/21 05:08:15;;;;;;;22.10;5.60;;;28.00;55.10;;;;;;5031913;28;20205;-61
2023/06/21 05:10:42;;;;;;;42.40;7.67;;;28.00;55.00;;;;;;5023784;28;20216;-65
2023/06/21 05:13:10;;;;;;;41.20;7.60;;;27.90;55.00;;;;;;5011404;28;20215;-76
2023/06/21 05:15:37;;;;;;;23.00;5.33;;;27.90;54.90;;;;;;5032273;28;20201;-86
2023/06/21 05:18:05;;;;;;;36.70;6.77;;;27.90;54.90;;;;;;5037612;28;20208;-74
2023/06/21 05:20:33;;;;;;;48.20;8.10;;;27.90;55.00;;;;;;5010472;28;20579;-76
2023/06/21 05:22:59;;;;;;;31.57;6.53;;;28.00;55.10;;;;;;5035245;28;20212;-80
2023/06/21 05:25:26;;;;;;;40.33;7.43;;;27.90;55.00;;;;;;5043880;28;20220;-87
2023/06/21 05:27:53;;;;;;;37.70;6.70;;;27.90;55.00;;;;;;5020441;28;20198;-62
2023/06/21 05:30:21;;;;;;;28.30;6.07;;;27.90;55.00;;;;;;5026687;28;20204;-66
2023/06/21 05:32:48;;;;;;;33.63;6.50;;;27.90;55.00;;;;;;5048344;28;20207;-62
2023/06/21 05:35:15;;;;;;;49.93;7.67;;;27.90;55.00;;;;;;5040087;28;20542;-65
2023/06/21 05:37:42;;;;;;;26.40;6.23;;;27.90;55.00;;;;;;5024026;28;20197;-62
2023/06/21 05:40:10;;;;;;;30.83;6.13;;;27.90;55.00;;;;;;5028606;28;20212;-70
2023/06/21 05:42:37;;;;;;;31.63;6.27;;;27.90;55.00;;;;;;5027441;28;20713;-63
2023/06/21 05:45:06;;;;;;;43.67;7.13;;;27.90;55.00;;;;;;5022034;28;20205;-65
2023/06/21 05:47:34;;;;;;;43.80;7.10;;;27.90;55.00;;;;;;5022279;28;20201;-61
2023/06/21 05:50:01;;;;;;;37.90;6.80;;;27.90;55.00;;;;;;5011181;28;20204;-61
2023/06/21 05:52:28;;;;;;;41.87;6.87;;;27.90;55.00;;;;;;5028600;28;20748;-61
2023/06/21 05:54:55;;;;;;;33.47;6.47;;;27.90;55.00;;;;;;5033309;28;20215;-59
2023/06/21 05:57:24;;;;;;;48.53;8.33;;;27.90;55.00;;;;;;5025760;28;20200;-64
2023/06/21 05:59:51;;;;;;;20.70;5.53;;;27.90;55.10;;;;;;5026883;28;20209;-61
2023/06/21 06:02:18;;;;;;;35.20;6.63;;;27.90;55.00;;;;;;5019225;28;20213;-64
2023/06/21 06:04:46;;;;;;;46.00;7.77;;;27.90;55.00;;;;;;5019210;28;20208;-62
2023/06/21 06:07:14;;;;;;;52.63;7.77;;;27.90;55.00;;;;;;5021699;28;20692;-71
2023/06/21 06:09:41;;;;;;;31.63;6.07;;;27.90;55.00;;;;;;5027011;28;20201;-66
2023/06/21 06:12:08;;;;;;;33.30;5.87;;;27.90;55.00;;;;;;5020166;28;20290;-69
2023/06/21 06:14:35;;;;;;;40.87;6.37;;;27.90;55.00;;;;;;5025985;28;20211;-65
2023/06/21 06:17:02;;;;;;;31.00;5.87;;;27.90;55.00;;;;;;5007660;28;20678;-63
2023/06/21 06:19:29;;;;;;;35.10;6.17;;;27.90;55.10;;;;;;5023782;28;20197;-62
2023/06/21 06:21:57;;;;;;;32.80;6.07;;;27.90;55.10;;;;;;5020694;28;20228;-64
2023/06/21 06:24:25;;;;;;;35.83;6.43;;;27.90;55.10;;;;;;5025169;28;20221;-61
2023/06/21 06:26:52;;;;;;;32.47;6.40;;;27.90;55.10;;;;;;5037660;28;20212;-67
2023/06/21 06:29:19;;;;;;;26.27;5.70;;;27.90;55.10;;;;;;5047786;28;20207;-65
2023/06/21 06:31:45;;;;;;;31.87;6.17;;;27.90;55.10;;;;;;5023205;28;20201;-63
2023/06/21 06:34:12;;;;;;;26.83;5.67;;;28.00;55.10;;;;;;5017890;28;20206;-63
2023/06/21 06:36:39;;;;;;;37.30;6.77;;;28.00;55.10;;;;;;5035116;28;20206;-63
2023/06/21 06:39:08;;;;;;;27.27;5.90;;;28.00;55.10;;;;;;5045366;28;20204;-76
2023/06/21 06:41:35;;;;;;;36.67;6.53;;;28.00;55.10;;;;;;5018279;28;20228;-70
2023/06/21 06:44:01;;;;;;;26.77;5.93;;;28.00;55.10;;;;;;5033578;28;20197;-67
2023/06/21 06:46:28;;;;;;;38.23;6.90;;;28.00;55.10;;;;;;5027084;28;20688;-71
2023/06/21 06:48:55;;;;;;;40.27;6.70;;;28.00;55.10;;;;;;5036610;28;20213;-66
2023/06/21 06:51:22;;;;;;;43.80;7.33;;;28.00;55.10;;;;;;5019578;28;20204;-75
2023/06/21 06:53:49;;;;;;;30.13;6.30;;;28.00;55.00;;;;;;5028755;28;20208;-62
2023/06/21 06:56:17;;;;;;;24.77;5.67;;;28.00;55.00;;;;;;5027867;28;20200;-69
2023/06/21 06:58:44;;;;;;;30.83;5.73;;;28.10;55.10;;;;;;5027436;28;20231;-74
2023/06/21 07:01:13;;;;;;;26.10;5.60;;;28.10;55.10;;;;;;5031357;28;20260;-66
2023/06/21 07:03:39;;;;;;;30.40;6.17;;;28.10;55.10;;;;;;5030806;28;20613;-70
2023/06/21 07:06:06;;;;;;;33.33;6.13;;;28.10;55.10;;;;;;5031337;28;20200;-73
2023/06/21 07:08:33;;;;;;;39.70;6.60;;;28.10;55.10;;;;;;5030940;28;20645;-64
2023/06/21 07:11:00;;;;;;;22.43;5.20;;;28.10;55.10;;;;;;5024045;28;20206;-66
2023/06/21 07:13:28;;;;;;;30.80;6.00;;;28.20;55.20;;;;;;5011594;28;20198;-63
2023/06/21 07:15:55;;;;;;;38.00;6.23;;;28.20;55.20;;;;;;5011231;28;20209;-62
2023/06/21 07:18:22;;;;;;;28.90;5.90;;;28.20;55.10;;;;;;5012672;28;20221;-65
2023/06/21 07:20:49;;;;;;;23.53;5.47;;;28.20;55.20;;;;;;5011747;28;20198;-69
2023/06/21 07:23:15;;;;;;;32.03;6.27;;;28.30;55.20;;;;;;5028591;28;20208;-64
2023/06/21 07:25:42;;;;;;;37.77;6.73;;;28.30;55.20;;;;;;5016071;28;20226;-72
2023/06/21 07:28:09;;;;;;;30.70;6.17;;;28.30;55.20;;;;;;5014961;28;20208;-62
2023/06/21 07:30:38;;;;;;;28.40;6.37;;;28.30;55.20;;;;;;5021344;28;20566;-63
2023/06/21 07:33:06;;;;;;;24.90;5.93;;;28.30;55.10;;;;;;5030651;28;20188;-62
2023/06/21 07:35:33;;;;;;;30.93;6.70;;;28.40;55.20;;;;;;5029125;28;20217;-62
2023/06/21 07:38:00;;;;;;;30.60;6.80;;;28.40;55.10;;;;;;5026262;28;20201;-71
2023/06/21 07:40:26;;;;;;;45.40;7.57;;;28.40;55.10;;;;;;5027328;28;20200;-61
2023/06/21 07:42:53;;;;;;;30.27;6.43;;;28.40;55.10;;;;;;5028806;28;20723;-62
2023/06/21 07:45:20;;;;;;;34.67;7.10;;;28.40;55.10;;;;;;5024714;28;20201;-62
2023/06/21 07:47:48;;;;;;;39.93;7.73;;;28.40;55.10;;;;;;5034048;28;21092;-61
2023/06/21 07:50:15;;;;;;;25.30;6.30;;;28.40;55.00;;;;;;5027714;28;20579;-63
2023/06/21 07:52:42;;;;;;;39.87;7.37;;;28.50;55.10;;;;;;5027559;28;20653;-62
2023/06/21 07:55:11;;;;;;;23.97;6.27;;;28.50;55.20;;;;;;5018798;28;20193;-61
2023/06/21 07:57:38;;;;;;;30.43;6.97;;;28.50;55.10;;;;;;5030176;28;20208;-62
2023/06/21 08:00:11;;;;;;;23.57;5.93;;;28.50;55.10;;;;;;5017727;28;20201;-62
2023/06/21 08:02:38;;;;;;;31.67;6.77;;;28.50;55.10;;;;;;5021510;28;20229;-62
2023/06/21 08:05:07;;;;;;;33.33;6.57;;;28.50;55.10;;;;;;5021175;28;20200;-62
2023/06/21 08:07:33;;;;;;;32.40;6.53;;;28.60;55.20;;;;;;5029950;28;20199;-62
2023/06/21 08:10:00;;;;;;;26.23;6.07;;;28.60;55.20;;;;;;5029699;28;20193;-61
2023/06/21 08:12:27;;;;;;;25.00;6.20;;;28.60;55.20;;;;;;5029712;28;20571;-62
2023/06/21 08:14:54;;;;;;;32.33;6.87;;;28.60;55.20;;;;;;5029147;28;20661;-69
2023/06/21 08:17:21;;;;;;;23.70;6.20;;;28.60;55.20;;;;;;5030082;28;20201;-72
2023/06/21 08:19:48;;;;;;;46.30;8.53;;;28.70;55.30;;;;;;5027873;28;20293;-69
2023/06/21 08:22:16;;;;;;;43.97;7.77;;;28.70;55.30;;;;;;5028150;28;20239;-80
2023/06/21 08:24:43;;;;;;;38.30;7.20;;;28.70;55.30;;;;;;5039244;28;20238;-67
2023/06/21 08:27:10;;;;;;;28.27;6.37;;;28.70;55.20;;;;;;5009322;28;20571;-66
2023/06/21 08:29:37;;;;;;;46.77;7.70;;;28.80;55.30;;;;;;5008762;28;20213;-64
2023/06/21 08:32:05;;;;;;;31.20;7.07;;;28.80;55.90;;;;;;5028528;28;20207;-71
2023/06/21 08:34:32;;;;;;;32.67;6.93;;;28.80;55.30;;;;;;5029431;28;20598;-65
2023/06/21 08:36:59;;;;;;;33.50;6.43;;;28.80;55.20;;;;;;5027656;28;20209;-69
2023/06/21 08:39:27;;;;;;;31.60;6.77;;;28.80;55.20;;;;;;5024004;28;20224;-67
2023/06/21 08:41:54;;;;;;;40.97;6.87;;;28.80;55.20;;;;;;5027089;28;20501;-67
2023/06/21 08:44:21;;;;;;;27.33;6.57;;;28.90;55.20;;;;;;5027339;28;20208;-62
2023/06/21 08:46:49;;;;;;;26.33;5.87;;;28.90;55.20;;;;;;5028166;28;20197;-62
2023/06/21 08:49:18;;;;;;;25.63;5.83;;;28.90;55.20;;;;;;5028760;28;20673;-67
2023/06/21 08:51:46;;;;;;;30.23;6.43;;;28.90;55.30;;;;;;5027667;28;20204;-69
2023/06/21 08:54:14;;;;;;;30.93;6.87;;;29.00;55.20;;;;;;5036000;28;20204;-73
2023/06/21 08:56:52;;;;;;;32.87;6.67;;;29.00;55.20;;;;;;5020235;28;20663;-63
2023/06/21 08:59:27;;;;;;;32.00;6.50;;;29.00;55.30;;;;;;5013591;28;20208;-67
2023/06/21 09:02:00;;;;;;;25.13;6.20;;;29.00;55.10;;;;;;5024657;28;20219;-70
2023/06/21 09:04:29;;;;;;;23.87;5.73;;;29.00;55.20;;;;;;5015910;28;20198;-62
2023/06/21 09:06:56;;;;;;;31.63;6.50;;;29.00;55.20;;;;;;5017466;28;20212;-61
2023/06/21 09:09:24;;;;;;;26.60;5.67;;;29.10;55.20;;;;;;5028831;28;20197;-61
2023/06/21 09:11:54;;;;;;;44.77;7.23;;;29.10;55.20;;;;;;5025519;28;20362;-61
2023/06/21 09:14:24;;;;;;;27.83;6.53;;;29.10;55.20;;;;;;5022707;28;20208;-64
2023/06/21 09:16:51;;;;;;;42.63;7.17;;;29.20;55.30;;;;;;5023288;28;20224;-61
2023/06/21 09:19:19;;;;;;;24.80;5.67;;;29.10;55.20;;;;;;5008230;28;20208;-61
2023/06/21 09:21:46;;;;;;;26.77;6.00;;;29.20;55.30;;;;;;5014316;28;20200;-62
2023/06/21 09:24:13;;;;;;;33.23;6.70;;;29.20;55.30;;;;;;5017269;28;20223;-63
2023/06/21 09:26:40;;;;;;;31.47;6.33;;;29.20;55.20;;;;;;5007871;28;20212;-61
2023/06/21 09:29:08;;;;;;;41.70;7.27;;;29.30;55.30;;;;;;5023358;28;20212;-71
2023/06/21 09:31:35;;;;;;;26.20;6.17;;;29.30;55.20;;;;;;5012528;28;20207;-61
2023/06/21 09:34:02;;;;;;;28.10;5.87;;;29.40;55.30;;;;;;5027561;28;20205;-62
2023/06/21 09:36:29;;;;;;;28.73;5.77;;;29.40;55.30;;;;;;5025749;28;20212;-61
2023/06/21 09:39:08;;;;;;;22.67;5.47;;;29.40;55.30;;;;;;5028466;28;20189;-61
2023/06/21 09:41:35;;;;;;;24.50;5.67;;;29.40;55.20;;;;;;5027846;28;20204;-68
2023/06/21 09:44:02;;;;;;;24.77;5.50;;;29.40;55.30;;;;;;5022416;28;20209;-68
2023/06/21 09:46:30;;;;;;;27.50;5.60;;;29.50;55.30;;;;;;5028056;28;20208;-69
2023/06/21 09:49:07;;;;;;;50.17;7.90;;;29.50;55.30;;;;;;5026302;28;20790;-65
2023/06/21 09:51:34;;;;;;;33.13;6.33;;;29.60;55.40;;;;;;5041853;28;20638;-73
2023/06/21 09:54:07;;;;;;;32.20;6.50;;;29.60;55.30;;;;;;5043948;28;20543;-69
2023/06/21 09:56:34;;;;;;;29.47;6.20;;;29.60;55.20;;;;;;5027680;28;20665;-69
2023/06/21 09:59:02;;;;;;;30.07;6.03;;;29.70;55.30;;;;;;5028274;28;20250;-62
2023/06/21 10:01:38;;;;;;;26.73;5.73;;;29.60;55.20;;;;;;5026742;28;20208;-74
2023/06/21 10:04:10;;;;;;;32.00;6.50;;;29.70;55.30;;;;;;5027936;28;20238;-71
2023/06/21 10:06:37;;;;;;;32.10;6.20;;;29.80;55.20;;;;;;5027900;28;20201;-70
2023/06/21 10:09:09;;;;;;;27.47;5.80;;;29.80;55.20;;;;;;5026217;28;20271;-72
2023/06/21 10:11:38;;;;;;;32.43;6.33;;;29.80;55.20;;;;;;5007645;28;20822;-69
2023/06/21 10:14:05;;;;;;;34.53;6.37;;;29.80;55.10;;;;;;5022601;28;20205;-72
2023/06/21 10:16:33;;;;;;;28.27;5.93;;;29.90;55.20;;;;;;5007864;28;20336;-66
2023/06/21 10:19:02;;;;;;;52.97;7.97;;;29.90;55.10;;;;;;5021583;28;20201;-78
2023/06/21 10:21:31;;;;;;;47.83;7.33;;;29.90;55.10;;;;;;5027284;28;20204;-74
2023/06/21 10:23:59;;;;;;;36.93;6.90;;;30.00;55.10;;;;;;5005998;28;20233;-66
2023/06/21 10:26:28;;;;;;;30.33;6.27;;;30.00;55.10;;;;;;5016097;28;20207;-66
2023/06/21 10:28:58;;;;;;;44.73;7.43;;;30.10;55.10;;;;;;5044171;28;20209;-77
2023/06/21 10:31:29;;;;;;;31.03;6.17;;;30.10;55.00;;;;;;5021050;28;20240;-74
2023/06/21 10:33:56;;;;;;;26.27;5.63;;;30.10;55.00;;;;;;5011990;28;20209;-74
2023/06/21 10:36:32;;;;;;;32.90;6.43;;;30.20;55.10;;;;;;5031858;28;20287;-71
2023/06/21 10:39:03;;;;;;;37.67;6.07;;;30.20;55.00;;;;;;5031889;28;20192;-66
2023/06/21 10:41:32;;;;;;;30.97;5.87;;;30.20;54.90;;;;;;5032173;28;20197;-66
2023/06/21 10:43:59;;;;;;;31.03;5.80;;;30.30;54.90;;;;;;5020039;28;20216;-66
2023/06/21 10:46:26;;;;;;;28.17;5.67;;;30.30;54.90;;;;;;5015620;28;20229;-67
2023/06/21 10:48:56;;;;;;;41.60;6.67;;;30.40;54.90;;;;;;5021448;28;20201;-62
2023/06/21 10:51:26;;;;;;;34.67;6.13;;;30.40;54.80;;;;;;5032283;28;20203;-62
2023/06/21 10:53:55;;;;;;;20.43;5.03;;;30.50;54.80;;;;;;5020068;28;20197;-74
2023/06/21 10:56:23;;;;;;;28.43;5.73;;;30.50;55.40;;;;;;5024029;28;20201;-79
2023/06/21 10:58:50;;;;;;;26.30;5.57;;;30.60;54.80;;;;;;5030381;28;20204;-63
2023/06/21 11:01:17;;;;;;;30.50;6.03;;;30.70;54.90;;;;;;5031411;28;20212;-62
2023/06/21 11:03:44;;;;;;;42.33;6.80;;;30.70;54.80;;;;;;5027400;28;20212;-65
2023/06/21 11:06:26;;;;;;;32.43;5.87;;;30.80;54.80;;;;;;5019874;28;20284;-61
2023/06/21 11:08:54;;;;;;;23.35;5.32;;;30.90;54.70;;;;;;5010502;28;20237;-68
2023/06/21 11:11:33;;;;;;;30.02;6.25;;;31.00;54.70;;;;;;5010823;28;20733;-61
2023/06/21 11:14:02;;;;;;;28.73;5.73;;;31.10;54.50;;;;;;5010403;28;20209;-63
2023/06/21 11:16:32;;;;;;;27.75;5.90;;;31.10;54.50;;;;;;5011106;28;20203;-64
2023/06/21 11:19:04;;;;;;;23.80;5.70;;;31.20;54.60;;;;;;5011677;28;20592;-62
2023/06/21 11:21:40;;;;;;;29.98;5.60;;;31.30;54.60;;;;;;5010906;28;20212;-64
2023/06/21 11:24:09;;;;;;;45.10;7.23;;;31.40;54.70;;;;;;5010269;28;20272;-62
2023/06/21 11:26:55;;;;;;;27.85;6.00;;;31.60;54.80;;;;;;5024877;28;20197;-62
2023/06/21 11:29:22;;;;;;;27.37;5.70;;;31.70;55.40;;;;;;5023391;28;20716;-62
2023/06/21 11:31:49;;;;;;;31.52;6.13;;;31.80;54.80;;;;;;5029208;28;20197;-64
2023/06/21 11:34:26;;;;;;;49.30;7.35;;;32.00;54.70;;;;;;5018104;28;20890;-61
2023/06/21 11:36:55;;;;;;;44.05;7.18;;;32.10;54.50;;;;;;5019126;28;20225;-65
2023/06/21 11:39:28;;;;;;;28.38;5.82;;;32.30;54.40;;;;;;5030381;28;20201;-63
2023/06/21 11:42:01;;;;;;;29.13;5.82;;;32.50;54.10;;;;;;5030749;28;20211;-62
2023/06/21 11:44:31;;;;;;;26.95;5.50;;;32.60;54.00;;;;;;5029547;28;20237;-68
2023/06/21 11:47:18;;;;;;;25.00;5.57;;;32.70;54.00;;;;;;5013086;28;20203;-65
2023/06/21 11:49:57;;;;;;;21.48;4.82;;;32.80;53.70;;;;;;5008054;28;20300;-69
2023/06/21 11:52:32;;;;;;;21.20;5.05;;;33.00;53.60;;;;;;5011701;28;20198;-62
2023/06/21 11:55:00;;;;;;;30.15;5.68;;;33.10;53.40;;;;;;5029998;28;20242;-62
2023/06/21 11:57:27;;;;;;;24.20;5.22;;;33.20;53.50;;;;;;5030210;28;20258;-62
2023/06/21 11:59:57;;;;;;;27.52;5.75;;;33.30;53.40;;;;;;5024001;28;20283;-65
2023/06/21 12:02:24;;;;;;;26.27;5.47;;;33.40;53.20;;;;;;5010498;28;20213;-62
2023/06/21 12:04:50;;;;;;;31.60;6.20;;;33.60;53.30;;;;;;5010439;28;20205;-62
2023/06/21 12:07:17;;;;;;;27.75;5.47;;;33.70;53.20;;;;;;5010476;28;20197;-69
2023/06/21 12:09:50;;;;;;;18.55;5.10;;;33.90;53.10;;;;;;5017311;28;20625;-62
2023/06/21 12:12:17;;;;;;;20.48;4.68;;;33.90;52.80;;;;;;5014400;28;20651;-72
2023/06/21 12:14:44;;;;;;;39.03;6.85;;;34.10;52.80;;;;;;5009609;28;20220;-75
2023/06/21 12:17:17;;;;;;;46.90;7.32;;;34.20;52.80;;;;;;5024396;28;20215;-68
2023/06/21 12:19:44;;;;;;;24.92;5.22;;;34.30;53.10;;;;;;5009630;28;20336;-79
2023/06/21 12:22:14;;;;;;;31.33;5.65;;;34.40;52.30;;;;;;5024776;28;20212;-68
2023/06/21 12:24:41;;;;;;;41.35;6.72;;;34.50;52.00;;;;;;5028975;28;20240;-62
2023/06/21 12:27:13;;;;;;;33.70;6.20;;;34.60;52.00;;;;;;5015235;28;20205;-62
2023/06/21 12:29:48;;;;;;;27.02;5.13;;;34.60;51.90;;;;;;5028263;28;20213;-64
2023/06/21 12:32:14;;;;;;;23.27;5.15;;;34.70;51.60;;;;;;5029955;28;20513;-72
2023/06/21 12:34:41;;;;;;;19.40;4.82;;;34.80;51.70;;;;;;5029489;28;20218;-62
2023/06/21 12:37:08;;;;;;;25.85;5.15;;;34.80;51.50;;;;;;5015229;28;20201;-66
2023/06/21 12:39:39;;;;;;;28.60;5.72;;;34.80;51.30;;;;;;5023820;28;20694;-63
2023/06/21 12:42:06;;;;;;;30.45;5.75;;;34.80;51.00;;;;;;5009107;28;20202;-68